Time;durP1;ratioP1;P1;durP2;ratioP2;P2;SDS_P1;SDS_P2;PMS_P1;PMS_P2;Temp;Humidity;BMP_temperature;BMP_pressure;BME280_temperature;BME280_humidity;BME280_pressure;Samples;Min_cycle;Max_cycle;Signal;HPM_P1;HPM_P2
2021/03/13 00:00:24;;;;;;;63.93;18.63;;;-0.30;99.90;;;;;;4437408;28;659812;-65
2021/03/13 00:03:11;;;;;;;62.97;18.23;;;-0.30;99.90;;;;;;4449002;28;661079;-65
2021/03/13 00:05:58;;;;;;;60.70;19.03;;;-0.30;99.90;;;;;;4437298;28;659637;-66
2021/03/13 00:08:45;;;;;;;62.60;18.27;;;-0.40;99.90;;;;;;4463419;28;660828;-66
2021/03/13 00:11:32;;;;;;;61.70;18.87;;;-0.50;99.90;;;;;;4443368;28;660000;-62
2021/03/13 00:14:19;;;;;;;132.00;30.80;;;-0.60;99.90;;;;;;4465959;28;660418;-66
2021/03/13 00:17:07;;;;;;;156.20;35.07;;;-0.70;99.90;;;;;;4454957;28;661584;-66
2021/03/13 00:19:54;;;;;;;149.05;33.63;;;-0.80;99.90;;;;;;4440963;28;661412;-67
2021/03/13 00:22:41;;;;;;;102.43;27.23;;;-0.80;99.90;;;;;;4452240;28;661275;-66
2021/03/13 00:25:29;;;;;;;114.47;30.58;;;-0.90;99.90;;;;;;4430015;28;661366;-65
2021/03/13 00:28:18;;;;;;;263.60;57.60;;;-0.90;99.90;;;;;;4440979;28;661333;-61
2021/03/13 00:31:05;;;;;;;160.83;38.27;;;-1.00;99.90;;;;;;4414333;28;662342;-66
2021/03/13 00:33:53;;;;;;;108.70;28.07;;;-0.90;99.90;;;;;;4425813;28;660573;-65
2021/03/13 00:36:40;;;;;;;121.30;28.47;;;-1.00;99.90;;;;;;4444414;28;663030;-66
2021/03/13 00:39:27;;;;;;;108.67;29.00;;;-1.00;99.90;;;;;;4428922;28;660649;-64
2021/03/13 00:42:14;;;;;;;122.57;26.67;;;-1.10;99.90;;;;;;4441059;28;662606;-67
2021/03/13 00:45:01;;;;;;;107.30;26.77;;;-1.10;99.90;;;;;;4448156;28;661485;-65
2021/03/13 00:47:48;;;;;;;97.30;27.03;;;-1.10;99.90;;;;;;4425530;28;661683;-67
2021/03/13 00:50:37;;;;;;;88.73;23.53;;;-1.20;99.90;;;;;;4458649;28;661289;-65
2021/03/13 00:53:24;;;;;;;80.20;23.37;;;-1.30;99.90;;;;;;4442476;28;660630;-66
2021/03/13 00:56:11;;;;;;;90.83;25.83;;;-1.40;99.90;;;;;;4455901;28;659923;-66
2021/03/13 00:58:58;;;;;;;191.17;40.60;;;-1.40;99.90;;;;;;4443599;28;659504;-65
2021/03/13 01:01:45;;;;;;;109.17;28.77;;;-1.50;99.90;;;;;;4464041;28;662184;-66
2021/03/13 01:04:32;;;;;;;135.93;33.97;;;-1.50;99.90;;;;;;4444153;28;660403;-64
2021/03/13 01:07:20;;;;;;;102.77;28.67;;;-1.60;99.90;;;;;;4460792;28;661088;-65
2021/03/13 01:10:10;;;;;;;90.60;25.10;;;-1.60;99.90;;;;;;4448339;28;662268;-63
2021/03/13 01:12:57;;;;;;;83.65;25.00;;;-1.70;99.90;;;;;;4445194;28;660190;-62
2021/03/13 01:15:44;;;;;;;87.80;24.33;;;-1.80;99.90;;;;;;4466390;28;659216;-63
2021/03/13 01:18:31;;;;;;;59.35;17.10;;;-1.80;99.90;;;;;;4457313;28;659985;-66
2021/03/13 01:21:18;;;;;;;52.00;16.07;;;-1.80;99.90;;;;;;4445134;28;660266;-65
2021/03/13 01:24:06;;;;;;;55.30;16.47;;;-1.80;99.90;;;;;;4433208;28;660672;-64
2021/03/13 01:26:53;;;;;;;48.87;16.23;;;-1.70;99.90;;;;;;4428765;28;660442;-66
2021/03/13 01:29:40;;;;;;;56.40;15.33;;;-1.70;99.90;;;;;;4458037;28;659908;-66
2021/03/13 01:32:27;;;;;;;48.60;15.40;;;-1.70;99.90;;;;;;4439299;28;661432;-64
2021/03/13 01:35:15;;;;;;;46.77;15.77;;;-1.70;99.90;;;;;;4451814;28;661429;-66
2021/03/13 01:38:02;;;;;;;60.33;17.13;;;-1.60;99.90;;;;;;4456339;28;659261;-67
2021/03/13 01:40:49;;;;;;;58.43;18.07;;;-1.60;99.90;;;;;;4442603;28;660388;-65
2021/03/13 01:43:36;;;;;;;62.77;17.77;;;-1.60;99.90;;;;;;4459868;28;660106;-66
2021/03/13 01:46:23;;;;;;;56.00;17.27;;;-1.60;99.90;;;;;;4442617;28;659697;-65
2021/03/13 01:49:13;;;;;;;54.28;16.52;;;-1.70;99.90;;;;;;4456148;28;660426;-65
2021/03/13 01:52:00;;;;;;;54.37;16.73;;;-1.70;99.90;;;;;;4420707;28;660293;-65
2021/03/13 01:54:47;;;;;;;58.27;16.83;;;-1.80;99.90;;;;;;4446423;28;660453;-60
2021/03/13 01:57:35;;;;;;;54.23;16.30;;;-1.80;99.90;;;;;;4460465;28;660644;-66
2021/03/13 02:00:23;;;;;;;60.40;17.53;;;-1.80;99.90;;;;;;4421394;28;660172;-65
2021/03/13 02:03:10;;;;;;;55.75;15.77;;;-1.80;99.90;;;;;;4440986;28;661056;-64
2021/03/13 02:05:57;;;;;;;41.77;13.80;;;-1.90;99.90;;;;;;4419064;28;661135;-63
2021/03/13 02:08:46;;;;;;;48.27;15.60;;;-2.00;99.90;;;;;;4448655;28;659164;-66
2021/03/13 02:11:37;;;;;;;46.07;14.07;;;-2.00;99.90;;;;;;4426091;28;659541;-66
2021/03/13 02:14:30;;;;;;;49.30;14.03;;;-2.00;99.90;;;;;;4428629;28;661539;-65
2021/03/13 02:17:19;;;;;;;45.67;14.03;;;-2.00;99.90;;;;;;4418639;28;660513;-62
2021/03/13 02:20:54;;;;;;;47.23;13.63;;;-1.90;99.90;;;;;;4445719;28;660152;-66
2021/03/13 02:24:23;;;;;;;51.83;14.43;;;-1.90;99.90;;;;;;4423721;28;660270;-66
2021/03/13 02:27:11;;;;;;;76.77;19.70;;;-1.90;99.90;;;;;;4427151;28;661039;-65
2021/03/13 02:30:00;;;;;;;77.57;20.90;;;-2.00;99.90;;;;;;4430653;28;660414;-64
2021/03/13 02:32:54;;;;;;;50.97;13.97;;;-2.00;99.90;;;;;;4431296;28;660398;-65
2021/03/13 02:35:43;;;;;;;45.00;13.10;;;-1.80;99.90;;;;;;4415045;28;659273;-66
2021/03/13 02:38:31;;;;;;;58.13;15.83;;;-1.90;99.90;;;;;;4439686;28;660249;-66
2021/03/13 02:41:19;;;;;;;58.47;15.20;;;-1.90;99.90;;;;;;4435925;28;660836;-65
2021/03/13 02:44:07;;;;;;;55.83;15.50;;;-1.90;99.90;;;;;;4458389;28;661252;-67
2021/03/13 02:46:54;;;;;;;43.90;12.00;;;-1.90;99.90;;;;;;4435241;28;659782;-66
2021/03/13 02:49:44;;;;;;;40.73;12.43;;;-1.90;99.90;;;;;;4454469;28;659449;-62
2021/03/13 02:52:31;;;;;;;35.77;11.03;;;-1.90;99.90;;;;;;4439196;28;660337;-66
2021/03/13 02:55:18;;;;;;;35.07;9.77;;;-1.90;99.90;;;;;;4436226;28;660342;-65
2021/03/13 02:58:05;;;;;;;38.53;10.60;;;-1.70;99.90;;;;;;4463189;28;660924;-66
2021/03/13 03:00:53;;;;;;;27.33;9.63;;;-1.70;99.90;;;;;;4428411;28;660164;-63
2021/03/13 03:03:41;;;;;;;30.30;9.80;;;-1.70;99.90;;;;;;4463271;28;660268;-67
2021/03/13 03:06:28;;;;;;;32.30;9.77;;;-1.70;99.90;;;;;;4426059;28;659531;-66
2021/03/13 03:09:15;;;;;;;34.87;10.90;;;-1.50;99.90;;;;;;4468527;28;659604;-67
2021/03/13 03:12:02;;;;;;;49.73;14.83;;;-1.50;99.90;;;;;;4458335;28;660950;-61
2021/03/13 03:14:49;;;;;;;55.37;16.20;;;-1.40;99.90;;;;;;4456819;28;661464;-66
2021/03/13 03:17:37;;;;;;;39.27;13.57;;;-1.40;99.90;;;;;;4444745;28;659907;-66
2021/03/13 03:20:25;;;;;;;54.67;15.03;;;-1.40;99.90;;;;;;4415439;28;660682;-65
2021/03/13 03:23:12;;;;;;;51.23;14.77;;;-1.40;99.90;;;;;;4417369;28;660001;-63
2021/03/13 03:25:59;;;;;;;49.67;14.20;;;-1.30;99.90;;;;;;4432173;28;659395;-66
2021/03/13 03:28:46;;;;;;;52.38;14.52;;;-1.30;99.90;;;;;;4437597;28;660707;-66
2021/03/13 03:31:33;;;;;;;85.80;19.97;;;-1.30;99.90;;;;;;4419055;28;660803;-67
2021/03/13 03:34:20;;;;;;;62.13;15.73;;;-1.30;99.90;;;;;;4447649;28;661026;-66
2021/03/13 03:37:08;;;;;;;79.13;19.15;;;-1.30;99.90;;;;;;4425843;28;659618;-62
2021/03/13 03:39:55;;;;;;;59.20;14.00;;;-1.30;99.90;;;;;;4445490;28;661622;-66
2021/03/13 03:42:45;;;;;;;82.70;21.23;;;-1.20;99.90;;;;;;4429451;28;659537;-62
2021/03/13 03:45:32;;;;;;;59.63;15.80;;;-1.20;99.90;;;;;;4426461;28;659931;-63
2021/03/13 03:48:20;;;;;;;60.50;16.17;;;-1.20;99.90;;;;;;4449799;28;660816;-61
2021/03/13 03:51:09;;;;;;;53.03;14.40;;;-1.20;99.90;;;;;;4419179;28;660818;-63
2021/03/13 03:53:57;;;;;;;67.30;17.40;;;-1.10;99.90;;;;;;4445248;28;660055;-65
2021/03/13 03:56:44;;;;;;;63.78;17.95;;;-1.00;99.90;;;;;;4426870;28;661112;-66
2021/03/13 03:59:31;;;;;;;102.47;25.57;;;-1.10;99.90;;;;;;4445423;28;660446;-67
2021/03/13 04:02:20;;;;;;;83.10;21.93;;;-1.10;99.90;;;;;;4419761;28;662107;-63
2021/03/13 04:05:10;;;;;;;78.17;18.37;;;-1.10;99.90;;;;;;4424581;28;659781;-64
2021/03/13 04:07:57;;;;;;;54.93;14.77;;;-1.10;99.90;;;;;;4445354;28;659375;-65
2021/03/13 04:10:46;;;;;;;38.73;11.17;;;-1.20;99.90;;;;;;4426396;28;660651;-67
2021/03/13 04:13:33;;;;;;;37.27;11.77;;;-1.20;99.90;;;;;;4428942;28;660891;-67
2021/03/13 04:16:20;;;;;;;34.27;10.80;;;-1.10;99.90;;;;;;4426238;28;661005;-66
2021/03/13 04:19:07;;;;;;;23.40;6.97;;;-1.10;99.90;;;;;;4437846;28;660041;-62
2021/03/13 04:21:54;;;;;;;25.53;7.43;;;-1.00;99.90;;;;;;4458895;28;660113;-65
2021/03/13 04:24:41;;;;;;;27.83;7.20;;;-1.00;99.90;;;;;;4466374;28;659028;-66
2021/03/13 04:27:29;;;;;;;25.33;7.57;;;-0.90;99.90;;;;;;4444625;28;659539;-67
2021/03/13 04:30:18;;;;;;;22.60;6.90;;;-1.00;99.90;;;;;;4466628;28;660075;-67
2021/03/13 04:33:05;;;;;;;51.90;14.97;;;-0.90;99.90;;;;;;4443337;28;659843;-67
2021/03/13 04:35:52;;;;;;;250.90;75.87;;;-0.90;99.90;;;;;;4464903;28;659417;-64
2021/03/13 04:38:39;;;;;;;163.40;42.27;;;-0.90;99.90;;;;;;4464353;28;662692;-67
2021/03/13 04:41:27;;;;;;;38.07;11.63;;;-0.80;99.90;;;;;;4447064;28;660764;-65
2021/03/13 04:44:14;;;;;;;33.87;9.43;;;-0.70;99.90;;;;;;4445495;28;660414;-66
2021/03/13 04:47:01;;;;;;;34.83;10.37;;;-0.50;99.90;;;;;;4460066;28;659395;-62
2021/03/13 04:49:48;;;;;;;29.63;9.27;;;-0.50;99.90;;;;;;4441978;28;659382;-66
2021/03/13 04:52:35;;;;;;;69.80;18.70;;;-0.60;99.90;;;;;;4467614;28;660346;-65
2021/03/13 04:55:23;;;;;;;57.70;14.00;;;-0.60;99.90;;;;;;4438159;28;660332;-65
2021/03/13 04:58:10;;;;;;;65.33;15.43;;;-0.70;99.90;;;;;;4452157;28;661392;-68
2021/03/13 05:00:58;;;;;;;54.97;14.10;;;-0.70;99.90;;;;;;4459799;28;659516;-62
2021/03/13 05:03:45;;;;;;;52.37;14.47;;;-0.70;99.90;;;;;;4463780;28;660617;-66
2021/03/13 05:06:32;;;;;;;47.50;13.53;;;-0.60;99.90;;;;;;4454712;28;659732;-62
2021/03/13 05:09:19;;;;;;;46.73;12.53;;;-0.60;99.90;;;;;;4458152;28;660645;-66
2021/03/13 05:12:07;;;;;;;49.47;11.60;;;-0.50;99.90;;;;;;4465736;28;660689;-67
2021/03/13 05:14:55;;;;;;;37.53;10.20;;;-0.40;99.90;;;;;;4437538;28;661689;-67
2021/03/13 05:17:43;;;;;;;40.10;10.73;;;-0.20;99.90;;;;;;4445628;28;659910;-65
2021/03/13 05:20:30;;;;;;;34.47;9.98;;;-0.20;99.90;;;;;;4464972;28;660674;-64
2021/03/13 05:23:17;;;;;;;29.27;8.93;;;0.00;99.90;;;;;;4421933;28;659242;-62
2021/03/13 05:26:04;;;;;;;36.63;10.27;;;0.10;99.90;;;;;;4443525;28;657332;-66
2021/03/13 05:28:51;;;;;;;23.47;7.00;;;0.20;99.90;;;;;;4439966;28;658908;-64
2021/03/13 05:31:38;;;;;;;19.07;5.30;;;0.30;99.90;;;;;;4433590;28;657954;-66
2021/03/13 05:34:26;;;;;;;18.50;5.73;;;0.60;99.90;;;;;;4463093;28;658484;-67
2021/03/13 05:37:13;;;;;;;10.97;3.83;;;0.70;99.90;;;;;;4430500;28;658548;-65
2021/03/13 05:40:00;;;;;;;13.77;5.00;;;1.20;99.90;;;;;;4449189;28;658210;-66
2021/03/13 05:42:47;;;;;;;14.73;4.57;;;1.50;99.90;;;;;;4438283;28;658487;-58
2021/03/13 05:45:34;;;;;;;9.23;3.40;;;1.70;99.90;;;;;;4460437;28;658682;-66
2021/03/13 05:48:21;;;;;;;8.33;3.37;;;1.80;99.90;;;;;;4460569;28;656708;-65
2021/03/13 05:51:09;;;;;;;10.65;3.33;;;1.80;99.90;;;;;;4442087;28;657167;-66
2021/03/13 05:53:56;;;;;;;11.05;3.28;;;1.90;99.90;;;;;;4458642;28;657522;-66
2021/03/13 05:56:43;;;;;;;8.97;3.50;;;2.20;99.90;;;;;;4447181;28;658003;-65
2021/03/13 05:59:30;;;;;;;10.57;3.80;;;2.30;99.90;;;;;;4460067;28;658069;-65
2021/03/13 06:02:17;;;;;;;7.82;3.28;;;2.90;99.90;;;;;;4453015;28;658308;-63
2021/03/13 06:05:06;;;;;;;13.15;3.83;;;3.00;99.90;;;;;;4470066;28;656847;-65
2021/03/13 06:07:54;;;;;;;11.07;3.40;;;3.20;99.90;;;;;;4447347;28;657979;-66
2021/03/13 06:10:41;;;;;;;7.70;2.40;;;3.40;99.90;;;;;;4460095;28;657690;-64
2021/03/13 06:13:28;;;;;;;8.35;3.10;;;3.50;99.90;;;;;;4440532;28;657853;-66
2021/03/13 06:16:15;;;;;;;11.53;3.67;;;4.00;99.90;;;;;;4467243;28;657442;-66
2021/03/13 06:19:02;;;;;;;11.87;3.20;;;4.50;99.90;;;;;;4433311;28;657574;-61
2021/03/13 06:21:49;;;;;;;10.60;4.00;;;4.70;99.90;;;;;;4466196;28;659333;-67
2021/03/13 06:24:37;;;;;;;8.93;2.93;;;4.90;99.90;;;;;;4462211;28;657459;-66
2021/03/13 06:27:24;;;;;;;8.63;2.57;;;5.10;99.90;;;;;;4443563;28;657526;-68
2021/03/13 06:30:13;;;;;;;5.60;2.17;;;5.20;99.90;;;;;;4470005;28;657343;-63
2021/03/13 06:32:59;;;;;;;6.10;1.67;;;5.40;99.90;;;;;;4431232;28;657879;-66
2021/03/13 06:35:46;;;;;;;9.17;2.00;;;5.70;99.90;;;;;;4458190;28;657334;-65
2021/03/13 06:38:39;;;;;;;11.87;2.93;;;5.70;99.90;;;;;;4444807;28;657535;-67
2021/03/13 06:41:27;;;;;;;11.05;1.80;;;5.80;99.90;;;;;;4442746;28;657800;-67
2021/03/13 06:44:15;;;;;;;7.47;1.67;;;5.90;99.90;;;;;;4444085;28;658838;-67
2021/03/13 06:47:02;;;;;;;11.63;2.63;;;6.10;99.90;;;;;;4457257;28;656475;-62
2021/03/13 06:49:52;;;;;;;11.85;3.80;;;6.10;99.90;;;;;;4469993;28;657258;-67
2021/03/13 06:52:40;;;;;;;10.57;3.23;;;6.10;99.90;;;;;;4428553;28;658351;-67
2021/03/13 06:55:27;;;;;;;11.93;3.20;;;6.10;99.90;;;;;;4443962;28;657518;-64
2021/03/13 06:58:15;;;;;;;5.07;2.10;;;6.20;99.90;;;;;;4459168;28;657836;-66
2021/03/13 07:01:04;;;;;;;7.40;2.50;;;6.20;99.90;;;;;;4447986;28;658126;-61
2021/03/13 07:03:51;;;;;;;9.83;3.93;;;6.20;99.90;;;;;;4460959;28;656811;-67
2021/03/13 07:06:44;;;;;;;8.53;2.90;;;6.10;99.90;;;;;;4432361;28;656581;-65
2021/03/13 07:09:48;;;;;;;12.70;3.13;;;6.10;99.90;;;;;;4430835;28;656657;-67
2021/03/13 07:12:38;;;;;;;17.37;6.00;;;6.20;99.90;;;;;;4437443;28;658235;-66
2021/03/13 07:15:27;;;;;;;7.97;2.50;;;6.20;99.90;;;;;;4417105;28;659216;-65
2021/03/13 07:18:14;;;;;;;17.90;3.57;;;6.20;99.90;;;;;;4426699;28;657429;-65
2021/03/13 07:21:01;;;;;;;4.53;2.00;;;6.20;99.90;;;;;;4452582;28;658241;-66
2021/03/13 07:23:54;;;;;;;16.77;5.33;;;6.30;99.90;;;;;;4442265;28;657001;-66
2021/03/13 07:26:41;;;;;;;11.07;4.73;;;6.30;99.90;;;;;;4425811;28;658399;-66
2021/03/13 07:29:28;;;;;;;10.77;4.50;;;6.40;99.90;;;;;;4423530;28;658183;-66
2021/03/13 07:32:17;;;;;;;7.77;2.80;;;6.50;99.90;;;;;;4445225;28;658645;-67
2021/03/13 07:35:08;;;;;;;10.03;3.50;;;6.60;99.90;;;;;;4417082;28;658785;-66
2021/03/13 07:37:55;;;;;;;11.90;4.23;;;6.70;99.90;;;;;;4423848;28;659423;-67
2021/03/13 07:40:44;;;;;;;10.67;3.10;;;6.80;99.90;;;;;;4428681;28;658016;-63
2021/03/13 07:43:31;;;;;;;10.37;3.60;;;6.80;99.90;;;;;;4465514;28;658535;-66
2021/03/13 07:46:18;;;;;;;11.60;3.33;;;6.80;99.90;;;;;;4446351;28;658550;-64
2021/03/13 07:49:06;;;;;;;10.30;2.47;;;6.90;99.90;;;;;;4464885;28;657462;-67
2021/03/13 07:51:53;;;;;;;9.63;2.43;;;7.00;99.90;;;;;;4439006;28;657660;-67
2021/03/13 07:54:42;;;;;;;11.63;3.63;;;7.00;99.90;;;;;;4457607;28;657059;-64
2021/03/13 07:57:29;;;;;;;12.47;3.10;;;6.90;99.90;;;;;;4450358;28;658096;-66
2021/03/13 08:00:16;;;;;;;7.73;3.10;;;7.00;99.90;;;;;;4467672;28;657734;-64
2021/03/13 08:03:04;;;;;;;10.93;2.55;;;7.10;99.90;;;;;;4444649;28;656593;-67
2021/03/13 08:05:58;;;;;;;9.60;3.30;;;7.10;99.90;;;;;;4456187;28;659092;-66
2021/03/13 08:08:45;;;;;;;5.03;2.10;;;7.20;99.90;;;;;;4434330;28;657543;-66
2021/03/13 08:11:38;;;;;;;6.03;2.37;;;7.40;99.90;;;;;;4444099;28;657813;-65
2021/03/13 08:14:31;;;;;;;8.60;2.57;;;7.50;99.90;;;;;;4447094;28;658502;-67
2021/03/13 08:17:18;;;;;;;5.90;1.30;;;7.70;99.90;;;;;;4423286;28;656844;-66
2021/03/13 08:20:09;;;;;;;6.37;1.70;;;7.60;99.90;;;;;;4473349;28;656401;-65
2021/03/13 08:23:21;;;;;;;6.97;2.00;;;7.70;99.90;;;;;;4443339;28;657151;-67
2021/03/13 08:26:07;;;;;;;9.60;2.17;;;7.70;99.90;;;;;;4427815;28;656504;-67
2021/03/13 08:28:56;;;;;;;4.43;1.90;;;7.90;99.90;;;;;;4469900;28;658203;-66
2021/03/13 08:31:45;;;;;;;4.50;1.63;;;7.90;99.90;;;;;;4451140;28;657944;-67
2021/03/13 08:34:42;;;;;;;8.13;2.88;;;7.80;99.90;;;;;;4451274;28;657166;-63
2021/03/13 08:37:29;;;;;;;6.40;2.40;;;7.90;99.90;;;;;;4422990;28;657236;-67
2021/03/13 08:40:23;;;;;;;6.73;2.30;;;8.10;99.90;;;;;;4451916;28;657108;-68
2021/03/13 08:43:36;;;;;;;8.63;2.63;;;8.30;99.90;;;;;;4440693;28;657068;-67
2021/03/13 08:46:46;;;;;;;7.83;1.97;;;8.20;99.90;;;;;;4426211;28;657135;-64
2021/03/13 08:49:40;;;;;;;5.37;2.07;;;8.20;99.90;;;;;;4418996;28;657082;-66
2021/03/13 08:52:28;;;;;;;9.67;2.20;;;8.20;99.90;;;;;;4419493;28;656430;-61
2021/03/13 08:55:32;;;;;;;5.57;2.13;;;8.50;99.90;;;;;;4467060;28;658362;-67
2021/03/13 08:58:43;;;;;;;2.50;1.10;;;8.70;99.90;;;;;;4422869;28;657546;-68
2021/03/13 09:01:30;;;;;;;8.03;2.00;;;8.70;99.90;;;;;;4401790;28;658099;-67
2021/03/13 09:04:17;;;;;;;7.70;2.20;;;8.90;99.90;;;;;;4451300;28;656550;-62
2021/03/13 09:07:06;;;;;;;2.87;1.50;;;8.80;99.90;;;;;;4447899;28;656262;-67
2021/03/13 09:09:56;;;;;;;5.77;1.60;;;8.90;99.90;;;;;;4388725;28;656831;-67
2021/03/13 09:12:46;;;;;;;4.70;1.47;;;8.90;99.90;;;;;;4414595;28;657486;-67
2021/03/13 09:15:33;;;;;;;4.50;1.50;;;8.60;99.90;;;;;;4436182;28;656656;-66
2021/03/13 09:18:20;;;;;;;5.63;1.93;;;8.60;99.90;;;;;;4467027;28;658004;-66
2021/03/13 09:21:07;;;;;;;4.20;1.60;;;8.70;99.90;;;;;;4444713;28;656682;-64
2021/03/13 09:23:54;;;;;;;8.40;1.70;;;8.60;99.90;;;;;;4471418;28;656113;-66
2021/03/13 09:26:41;;;;;;;4.40;1.97;;;8.60;99.90;;;;;;4450592;28;656875;-66
2021/03/13 09:29:30;;;;;;;6.90;2.17;;;8.60;99.90;;;;;;4449235;28;656715;-67
2021/03/13 09:32:17;;;;;;;5.30;1.80;;;8.60;99.40;;;;;;4452425;28;656463;-65
2021/03/13 09:35:05;;;;;;;5.27;1.50;;;8.80;99.60;;;;;;4443724;28;656674;-66
2021/03/13 09:37:52;;;;;;;6.77;2.00;;;8.70;99.90;;;;;;4449420;28;656482;-64
2021/03/13 09:40:39;;;;;;;5.83;1.83;;;8.90;98.80;;;;;;4472856;28;657239;-66
2021/03/13 09:43:26;;;;;;;5.07;1.73;;;8.90;98.10;;;;;;4458788;28;656995;-66
2021/03/13 09:46:17;;;;;;;3.73;1.73;;;9.10;98.10;;;;;;4447807;28;657523;-67
2021/03/13 09:49:05;;;;;;;4.43;1.40;;;9.30;97.40;;;;;;4447540;28;656599;-66
2021/03/13 09:51:52;;;;;;;4.13;1.30;;;9.10;98.00;;;;;;4441952;28;656522;-64
2021/03/13 09:54:40;;;;;;;2.80;1.10;;;9.50;97.90;;;;;;4456951;28;657329;-67
2021/03/13 09:57:27;;;;;;;4.87;1.50;;;9.90;97.40;;;;;;4425274;28;656680;-64
2021/03/13 10:00:17;;;;;;;6.23;1.50;;;10.30;96.30;;;;;;4453463;28;656876;-68
2021/03/13 10:03:10;;;;;;;3.63;1.57;;;10.50;94.90;;;;;;4426373;28;658819;-68
2021/03/13 10:05:58;;;;;;;4.67;1.30;;;9.90;95.30;;;;;;4409910;28;658606;-62
2021/03/13 10:08:45;;;;;;;3.30;1.10;;;9.80;95.60;;;;;;4443641;28;657853;-67
2021/03/13 10:11:42;;;;;;;3.07;1.47;;;9.30;96.90;;;;;;4444637;28;658057;-61
2021/03/13 10:14:29;;;;;;;6.37;1.57;;;9.30;97.00;;;;;;4415467;28;657272;-68
2021/03/13 10:17:16;;;;;;;3.40;1.33;;;9.10;96.60;;;;;;4464949;28;657253;-67
2021/03/13 10:20:12;;;;;;;3.60;1.30;;;8.90;97.70;;;;;;4441305;28;656456;-65
2021/03/13 10:23:08;;;;;;;1.93;0.93;;;8.90;98.40;;;;;;4448739;28;657219;-66
2021/03/13 10:25:56;;;;;;;3.47;1.47;;;9.10;97.70;;;;;;4437023;28;656316;-66
2021/03/13 10:28:45;;;;;;;11.90;3.00;;;9.40;98.60;;;;;;4438921;28;657039;-66
2021/03/13 10:31:32;;;;;;;2.83;1.67;;;9.80;98.60;;;;;;4449250;28;657616;-63
2021/03/13 10:34:19;;;;;;;4.33;1.20;;;10.40;96.90;;;;;;4467623;28;658210;-65
2021/03/13 10:37:08;;;;;;;4.43;1.90;;;10.20;95.30;;;;;;4452694;28;659095;-65
2021/03/13 10:39:55;;;;;;;2.30;1.20;;;9.90;94.10;;;;;;4436239;28;658634;-65
2021/03/13 10:42:42;;;;;;;7.47;2.07;;;9.70;95.00;;;;;;4456552;28;656469;-63
2021/03/13 10:45:30;;;;;;;4.07;1.53;;;9.70;95.90;;;;;;4465337;28;656130;-64
2021/03/13 10:48:16;;;;;;;5.53;2.13;;;9.60;95.10;;;;;;4462512;28;658191;-65
2021/03/13 10:51:04;;;;;;;3.80;1.37;;;9.60;96.50;;;;;;4443019;28;658762;-65
2021/03/13 10:53:52;;;;;;;6.63;1.77;;;9.80;95.70;;;;;;4468007;28;656831;-64
2021/03/13 10:56:40;;;;;;;7.75;1.40;;;9.80;95.70;;;;;;4445637;28;656695;-64
2021/03/13 10:59:33;;;;;;;2.93;1.67;;;10.00;95.30;;;;;;4466983;27;656550;-62
2021/03/13 11:02:20;;;;;;;6.77;2.33;;;10.20;94.00;;;;;;4441762;28;658576;-65
2021/03/13 11:05:08;;;;;;;2.13;1.00;;;10.20;94.90;;;;;;4440001;28;657758;-65
2021/03/13 11:07:55;;;;;;;2.77;1.50;;;10.20;93.60;;;;;;4465076;27;658314;-65
2021/03/13 11:10:43;;;;;;;5.00;1.60;;;10.70;92.90;;;;;;4450304;28;657438;-63
2021/03/13 11:13:30;;;;;;;6.20;2.17;;;10.70;92.90;;;;;;4457301;28;658196;-65
2021/03/13 11:16:17;;;;;;;2.67;1.17;;;10.70;92.90;;;;;;4436100;28;657533;-62
2021/03/13 11:19:07;;;;;;;4.03;1.63;;;10.60;92.00;;;;;;4453644;28;658578;-64
2021/03/13 11:21:54;;;;;;;4.17;1.30;;;10.80;92.30;;;;;;4444653;28;657457;-65
2021/03/13 11:24:41;;;;;;;2.50;1.40;;;11.40;91.80;;;;;;4461773;28;658766;-64
2021/03/13 11:27:30;;;;;;;4.37;1.47;;;11.60;91.00;;;;;;4445170;28;658494;-65
2021/03/13 11:30:18;;;;;;;3.33;1.60;;;11.20;89.60;;;;;;4445655;28;659172;-63
2021/03/13 11:33:06;;;;;;;7.00;1.50;;;10.70;91.40;;;;;;4459567;28;658863;-62
2021/03/13 11:35:53;;;;;;;4.27;1.70;;;11.00;90.70;;;;;;4440906;28;657540;-65
2021/03/13 11:38:40;;;;;;;4.37;1.40;;;11.10;89.30;;;;;;4464479;28;659524;-65
2021/03/13 11:41:27;;;;;;;4.87;1.50;;;11.40;89.40;;;;;;4460154;28;657754;-63
2021/03/13 11:44:15;;;;;;;3.17;1.40;;;11.40;88.40;;;;;;4468913;28;657206;-65
2021/03/13 11:47:02;;;;;;;11.43;2.43;;;11.30;86.60;;;;;;4444261;28;659111;-63
2021/03/13 11:49:49;;;;;;;6.90;2.13;;;11.60;86.30;;;;;;4464217;28;658463;-65
2021/03/13 11:52:36;;;;;;;18.47;4.27;;;11.80;87.60;;;;;;4461998;28;657694;-64
2021/03/13 11:55:24;;;;;;;10.77;2.40;;;12.00;85.10;;;;;;4444447;28;660094;-65
2021/03/13 11:58:11;;;;;;;9.83;2.43;;;11.80;86.70;;;;;;4456137;28;660265;-65
2021/03/13 12:00:59;;;;;;;6.93;1.63;;;11.80;86.50;;;;;;4444731;28;657880;-65
2021/03/13 12:03:46;;;;;;;7.55;1.77;;;11.70;85.10;;;;;;4454986;28;658638;-65
2021/03/13 12:06:33;;;;;;;5.33;1.90;;;11.50;85.00;;;;;;4443747;28;657601;-64
2021/03/13 12:09:20;;;;;;;5.53;1.73;;;11.20;83.60;;;;;;4464713;28;658881;-65
2021/03/13 12:12:09;;;;;;;6.07;2.13;;;10.70;85.50;;;;;;4447179;28;657750;-63
2021/03/13 12:14:59;;;;;;;15.00;2.83;;;11.10;88.20;;;;;;4457642;28;657355;-65
2021/03/13 12:17:47;;;;;;;5.60;1.35;;;11.30;86.20;;;;;;4434488;28;660234;-65
2021/03/13 12:20:34;;;;;;;4.80;2.10;;;11.90;84.80;;;;;;4431980;28;659427;-65
2021/03/13 12:23:21;;;;;;;2.80;1.20;;;11.80;82.90;;;;;;4465469;28;657839;-65
2021/03/13 12:26:08;;;;;;;6.37;2.60;;;12.00;83.90;;;;;;4431118;28;658691;-65
2021/03/13 12:28:55;;;;;;;2.67;1.20;;;12.60;82.30;;;;;;4462448;28;658967;-65
2021/03/13 12:31:42;;;;;;;6.68;1.60;;;12.70;78.60;;;;;;4441057;28;658289;-63
2021/03/13 12:34:30;;;;;;;9.50;2.83;;;11.40;80.00;;;;;;4468684;28;657249;-65
2021/03/13 12:37:17;;;;;;;5.07;1.77;;;10.90;80.80;;;;;;4451783;28;658689;-63
2021/03/13 12:40:06;;;;;;;4.73;1.43;;;11.10;85.10;;;;;;4472548;28;657228;-65
2021/03/13 12:42:52;;;;;;;4.80;1.60;;;11.20;82.30;;;;;;4449649;28;657489;-65
2021/03/13 12:45:39;;;;;;;2.70;1.47;;;11.10;81.30;;;;;;4468007;28;658720;-65
2021/03/13 12:48:27;;;;;;;4.73;1.63;;;10.90;80.40;;;;;;4466178;28;657556;-65
2021/03/13 12:51:15;;;;;;;3.90;1.60;;;11.20;80.80;;;;;;4444865;28;659070;-65
2021/03/13 12:54:02;;;;;;;3.93;1.73;;;11.10;81.20;;;;;;4451867;28;657651;-62
2021/03/13 12:56:49;;;;;;;4.23;1.67;;;11.00;82.50;;;;;;4464449;28;657929;-65
2021/03/13 12:59:36;;;;;;;5.53;2.03;;;10.80;82.30;;;;;;4467590;28;657425;-66
2021/03/13 13:02:23;;;;;;;6.90;1.70;;;11.00;82.40;;;;;;4447845;28;658958;-64
2021/03/13 13:05:11;;;;;;;3.07;1.47;;;10.80;82.30;;;;;;4470172;28;657245;-64
2021/03/13 13:07:59;;;;;;;3.40;1.73;;;10.90;83.30;;;;;;4438500;28;657825;-64
2021/03/13 13:10:47;;;;;;;4.17;1.63;;;11.10;81.40;;;;;;4467541;28;658658;-63
2021/03/13 13:13:34;;;;;;;2.90;1.80;;;11.10;81.80;;;;;;4448593;28;657550;-64
2021/03/13 13:16:21;;;;;;;5.23;1.87;;;11.40;81.70;;;;;;4467110;28;659695;-64
2021/03/13 13:19:08;;;;;;;6.07;2.13;;;11.20;80.40;;;;;;4442495;28;657852;-65
2021/03/13 13:21:54;;;;;;;9.37;2.43;;;11.10;82.60;;;;;;4466194;28;660204;-64
2021/03/13 13:24:42;;;;;;;6.53;2.30;;;11.00;83.40;;;;;;4459646;28;658024;-64
2021/03/13 13:27:29;;;;;;;5.25;1.85;;;10.60;81.90;;;;;;4448772;28;658696;-64
2021/03/13 13:30:17;;;;;;;9.17;1.53;;;10.50;83.00;;;;;;4458760;28;658077;-63
2021/03/13 13:33:04;;;;;;;3.97;1.77;;;10.50;82.90;;;;;;4444097;28;658726;-63
2021/03/13 13:35:54;;;;;;;5.20;1.60;;;10.50;83.00;;;;;;4466417;28;657581;-63
2021/03/13 13:38:42;;;;;;;1.87;1.10;;;10.40;81.60;;;;;;4435726;28;658564;-63
2021/03/13 13:41:30;;;;;;;4.23;1.70;;;10.50;81.10;;;;;;4443527;27;658670;-63
2021/03/13 13:44:17;;;;;;;4.27;1.33;;;10.50;81.90;;;;;;4445861;28;658747;-61
2021/03/13 13:47:04;;;;;;;1.13;0.70;;;10.60;80.80;;;;;;4465839;28;658522;-63
2021/03/13 13:49:51;;;;;;;8.50;2.03;;;10.60;81.70;;;;;;4465063;28;658689;-63
2021/03/13 13:52:38;;;;;;;7.77;2.07;;;10.50;81.90;;;;;;4445841;28;658115;-64
2021/03/13 13:55:25;;;;;;;5.50;1.87;;;10.30;81.40;;;;;;4466895;28;659378;-63
2021/03/13 13:58:14;;;;;;;2.60;1.43;;;10.10;81.80;;;;;;4404423;28;659383;-63
2021/03/13 14:01:01;;;;;;;3.10;1.60;;;9.90;83.20;;;;;;4466135;28;657799;-63
2021/03/13 14:03:48;;;;;;;1.63;1.00;;;9.90;84.40;;;;;;4442185;28;657090;-63
2021/03/13 14:06:35;;;;;;;6.03;1.87;;;9.90;83.60;;;;;;4470928;28;656720;-64
2021/03/13 14:09:22;;;;;;;3.45;1.33;;;10.00;84.50;;;;;;4451585;28;656508;-62
2021/03/13 14:12:10;;;;;;;4.50;2.20;;;10.10;82.80;;;;;;4464244;28;657703;-63
2021/03/13 14:14:58;;;;;;;5.07;1.97;;;10.10;83.40;;;;;;4459502;28;657142;-62
2021/03/13 14:17:46;;;;;;;7.50;2.27;;;10.00;83.40;;;;;;4456458;28;658108;-63